Map

Track Data

SID SEASON NUMBER BASIN SUBBASIN NAME ISO_TIME NATURE LAT LON WMO_WIND WMO_PRES WMO_AGENCY TRACK_TYPE DIST2LAND LANDFALL IFLAG USA_AGENCY USA_ATCF_ID USA_LAT USA_LON USA_RECORD USA_STATUS USA_WIND USA_PRES USA_SSHS USA_R34_NE USA_R34_SE USA_R34_SW USA_R34_NW USA_R50_NE USA_R50_SE USA_R50_SW USA_R50_NW USA_R64_NE USA_R64_SE USA_R64_SW USA_R64_NW USA_POCI USA_ROCI USA_RMW USA_EYE TOKYO_LAT TOKYO_LON TOKYO_GRADE TOKYO_WIND TOKYO_PRES TOKYO_R50_DIR TOKYO_R50_LONG TOKYO_R50_SHORT TOKYO_R30_DIR TOKYO_R30_LONG TOKYO_R30_SHORT TOKYO_LAND CMA_LAT CMA_LON CMA_CAT CMA_WIND CMA_PRES HKO_LAT HKO_LON HKO_CAT HKO_WIND HKO_PRES NEWDELHI_LAT NEWDELHI_LON NEWDELHI_GRADE NEWDELHI_WIND NEWDELHI_PRES NEWDELHI_CI NEWDELHI_DP NEWDELHI_POCI REUNION_LAT REUNION_LON REUNION_TYPE REUNION_WIND REUNION_PRES REUNION_TNUM REUNION_CI REUNION_RMW REUNION_R34_NE REUNION_R34_SE REUNION_R34_SW REUNION_R34_NW REUNION_R50_NE REUNION_R50_SE REUNION_R50_SW REUNION_R50_NW REUNION_R64_NE REUNION_R64_SE REUNION_R64_SW REUNION_R64_NW BOM_LAT BOM_LON BOM_TYPE BOM_WIND BOM_PRES BOM_TNUM BOM_CI BOM_RMW BOM_R34_NE BOM_R34_SE BOM_R34_SW BOM_R34_NW BOM_R50_NE BOM_R50_SE BOM_R50_SW BOM_R50_NW BOM_R64_NE BOM_R64_SE BOM_R64_SW BOM_R64_NW BOM_ROCI BOM_POCI BOM_EYE BOM_POS_METHOD BOM_PRES_METHOD NADI_LAT NADI_LON NADI_CAT NADI_WIND NADI_PRES WELLINGTON_LAT WELLINGTON_LON WELLINGTON_WIND WELLINGTON_PRES DS824_LAT DS824_LON DS824_STAGE DS824_WIND DS824_PRES TD9636_LAT TD9636_LON TD9636_STAGE TD9636_WIND TD9636_PRES TD9635_LAT TD9635_LON TD9635_WIND TD9635_PRES TD9635_ROCI NEUMANN_LAT NEUMANN_LON NEUMANN_CLASS NEUMANN_WIND NEUMANN_PRES MLC_LAT MLC_LON MLC_CLASS MLC_WIND MLC_PRES USA_GUST BOM_GUST BOM_GUST_PER REUNION_GUST REUNION_GUST_PER USA_SEAHGT USA_SEARAD_NE USA_SEARAD_SE USA_SEARAD_SW USA_SEARAD_NW STORM_SPEED STORM_DIR
1952337N11073 1952 95 NI AS NOT_NAMED 1952-12-01 18:00:00 TS 10.8000 72.7000 main 304 304 O________O____ jtwc_io IO161952 10.8000 72.7000 -1 10.8000 72.7000 TC 12 280
1952337N11073 1952 95 NI AS NOT_NAMED 1952-12-01 21:00:00 TS 10.9103 72.0826 main 357 357 P________P____ IO161952 10.9103 72.0826 -1 10.9103 72.0826 TC 12 280
1952337N11073 1952 95 NI AS NOT_NAMED 1952-12-02 00:00:00 TS 11.0000 71.5000 main 411 411 O________O____ jtwc_io IO161952 11.0000 71.5000 -1 11.0000 71.5000 TC 25 11 278
1952337N11073 1952 95 NI AS NOT_NAMED 1952-12-02 03:00:00 TS 11.0621 70.9799 main 455 455 P________PO___ IO161952 11.0574 70.9774 -1 11.0574 70.9774 TC 25 11.1000 71.0000 1 10 276
1952337N11073 1952 95 NI AS NOT_NAMED 1952-12-02 06:00:00 TS 11.1049 70.5047 main 505 505 O________OP___ jtwc_io IO161952 11.1000 70.5000 -1 11.1000 70.5000 TC 25 11.1243 70.5236 1 9 276
1952337N11073 1952 95 NI AS NOT_NAMED 1952-12-02 09:00:00 TS 11.1550 70.0412 main 552 552 P________PP___ IO161952 11.1574 70.0350 -1 11.1574 70.0350 TC 25 11.1486 70.0576 1 9 276
1952337N11073 1952 95 NI AS NOT_NAMED 1952-12-02 12:00:00 TS 11.1912 69.6043 main 593 593 O________OP___ jtwc_io IO161952 11.2000 69.6000 -1 11.2000 69.6000 TC 25 11.1736 69.6129 1 8 273
1952337N11073 1952 95 NI AS NOT_NAMED 1952-12-02 15:00:00 TS 11.1999 69.1950 main 635 635 P________PO___ IO161952 11.1999 69.1924 -1 11.1999 69.1924 TC 25 11.2000 69.2000 1 8 271
1952337N11073 1952 95 NI AS NOT_NAMED 1952-12-02 18:00:00 TS 11.2094 68.8068 main 677 677 O________OP___ jtwc_io IO161952 11.2000 68.8000 -1 11.2000 68.8000 TC 25 11.2282 68.8205 1 7 274
1952337N11073 1952 95 NI AS NOT_NAMED 1952-12-02 21:00:00 TS 11.2519 68.4333 main 716 716 P________PP___ IO161952 11.2498 68.4300 -1 11.2498 68.4300 TC 25 11.2561 68.4399 1 8 276
1952337N11073 1952 95 NI AS NOT_NAMED 1952-12-03 00:00:00 TS 11.2937 68.0048 main 758 758 O________OP___ jtwc_io IO161952 11.3000 68.0000 -1 11.3000 68.0000 TC 25 11.2811 68.0143 1 9 273
1952337N11073 1952 95 NI AS NOT_NAMED 1952-12-03 03:00:00 TS 11.3049 67.4683 main 811 811 P________PO___ IO161952 11.3074 67.4524 -1 11.3074 67.4524 TC 25 11.3000 67.5000 1 12 271
1952337N11073 1952 95 NI AS NOT_NAMED 1952-12-03 06:00:00 TS 11.3039 66.8131 main 878 878 O________OP___ jtwc_io IO161952 11.3000 66.8000 -1 11.3000 66.8000 TC 25 11.3117 66.8393 1 14 270
1952337N11073 1952 95 NI AS NOT_NAMED 1952-12-03 09:00:00 TS 11.3052 66.0783 main 945 945 P________PP___ IO161952 11.3000 66.0725 -1 11.3000 66.0725 TC 25 11.3156 66.0898 1 15 270
1952337N11073 1952 95 NI AS NOT_NAMED 1952-12-03 12:00:00 TS 11.3039 65.2985 main 1023 1023 O________OP___ jtwc_io IO161952 11.3000 65.3000 -1 11.3000 65.3000 TC 25 11.3116 65.2955 1 15 270
1952337N11073 1952 95 NI AS NOT_NAMED 1952-12-03 15:00:00 TS 11.3049 64.5334 main 1098 1022 P________PO___ IO161952 11.3073 64.5501 -1 11.3073 64.5501 TC 25 11.3000 64.5000 1 15 270
1952337N11073 1952 95 NI AS NOT_NAMED 1952-12-03 18:00:00 TS 11.2927 63.7752 main 1022 947 O________OP___ jtwc_io IO161952 11.3000 63.8000 -1 11.3000 63.8000 TC 25 11.2817 63.7380 1 15 268
1952337N11073 1952 95 NI AS NOT_NAMED 1952-12-03 21:00:00 TS 11.2594 63.0318 main 936 863 P________PP___ IO161952 11.2604 63.0499 -1 11.2604 63.0499 TC 25 11.2581 63.0077 1 15 267
1952337N11073 1952 95 NI AS NOT_NAMED 1952-12-04 00:00:00 TS 11.2152 62.2993 main 863 788 O________OP___ jtwc_io IO161952 11.2000 62.3000 -1 11.2000 62.3000 TC 25 11.2304 62.2985 1 14 268
1952337N11073 1952 95 NI AS NOT_NAMED 1952-12-04 03:00:00 NR 11.2000 61.6000 main 788 __________O___ IO161952 -1 TC 11.2000 61.6000 1 14 269

About IBTrACS Database

This database is a web-friendly format of International Best Track Archive for Climate Stewardship (IBTrACS), a global best track data archive curated by NOAA dating back to 1842.

Updated: 2021-11-26